Time;durP1;ratioP1;P1;durP2;ratioP2;P2;SDS_P1;SDS_P2;PMS_P1;PMS_P2;Temp;Humidity;BMP_temperature;BMP_pressure;BME280_temperature;BME280_humidity;BME280_pressure;Samples;Min_cycle;Max_cycle;Signal;HPM_P1;HPM_P2
2023/11/28 00:00:34;;;;;;;7.90;3.80;;;;;;;4.29;83.60;99529.66;31058500;28;20058;-75
2023/11/28 00:15:37;;;;;;;8.97;4.30;;;;;;;4.23;83.56;99538.53;31049681;28;20500;-77
2023/11/28 00:30:38;;;;;;;5.80;3.50;;;;;;;3.94;82.93;99556.63;31056573;28;20076;-76
2023/11/28 00:45:40;;;;;;;5.77;3.93;;;;;;;3.92;83.28;99570.44;31052694;28;20137;-75
2023/11/28 01:00:42;;;;;;;4.70;3.50;;;;;;;3.78;81.74;99571.22;31087082;28;20047;-75
2023/11/28 01:15:44;;;;;;;6.00;3.23;;;;;;;3.57;81.60;99589.25;31056381;28;20069;-74
2023/11/28 01:30:46;;;;;;;4.10;2.83;;;;;;;3.49;82.70;99615.31;31038310;28;20069;-75
2023/11/28 01:45:48;;;;;;;6.47;3.30;;;;;;;3.64;79.93;99618.78;31073377;28;20141;-74
2023/11/28 02:00:51;;;;;;;7.20;3.73;;;;;;;3.88;78.74;99630.66;31053916;28;20046;-75
2023/11/28 02:15:54;;;;;;;4.33;2.73;;;;;;;3.51;78.58;99655.97;31070119;28;20049;-74
2023/11/28 02:30:58;;;;;;;5.43;3.27;;;;;;;3.38;78.35;99668.19;31056778;28;20050;-74
2023/11/28 02:46:00;;;;;;;3.17;2.50;;;;;;;3.06;79.19;99678.84;31085178;28;20077;-75
2023/11/28 03:01:02;;;;;;;5.47;3.80;;;;;;;2.97;77.83;99707.91;31038704;28;20046;-75
2023/11/28 03:16:05;;;;;;;6.47;3.80;;;;;;;3.11;78.49;99717.91;31035136;28;20141;-77
2023/11/28 03:31:07;;;;;;;5.77;3.27;;;;;;;2.93;77.47;99734.69;31051477;28;20053;-77
2023/11/28 03:46:09;;;;;;;4.60;3.17;;;;;;;2.81;81.59;99764.50;31055286;28;20161;-76
2023/11/28 04:01:13;;;;;;;7.57;4.37;;;;;;;2.69;85.98;99772.84;31042583;28;20042;-75
2023/11/28 04:16:18;;;;;;;10.17;4.27;;;;;;;2.73;87.44;99787.03;31065109;28;20066;-76
2023/11/28 04:31:20;;;;;;;8.90;4.40;;;;;;;2.50;88.61;99797.97;31056864;28;20060;-75
2023/11/28 04:46:23;;;;;;;4.50;3.63;;;;;;;2.80;88.18;99815.81;31058943;28;20460;-76
2023/11/28 05:01:25;;;;;;;9.87;5.57;;;;;;;2.63;87.54;99833.28;31044378;28;20151;-78
2023/11/28 05:16:27;;;;;;;6.77;4.10;;;;;;;2.52;87.21;99843.16;31063985;28;20062;-76
2023/11/28 05:31:42;;;;;;;8.77;4.47;;;;;;;2.38;88.46;99844.56;31070753;28;20081;-77
2023/11/28 05:46:44;;;;;;;9.87;5.80;;;;;;;3.97;85.60;99851.28;31089130;28;20097;-76
2023/11/28 06:02:00;;;;;;;7.43;4.30;;;;;;;7.03;71.77;99849.19;31063957;28;20113;-77
2023/11/28 06:17:02;;;;;;;6.70;4.33;;;;;;;8.50;71.17;99870.63;31085546;28;20061;-78
2023/11/28 06:32:06;;;;;;;10.07;4.43;;;;;;;9.46;64.31;99882.53;31057059;28;20065;-76
2023/11/28 06:47:08;;;;;;;7.47;4.17;;;;;;;10.31;62.97;99897.13;31069914;28;20142;-79
2023/11/28 07:02:10;;;;;;;9.53;6.27;;;;;;;10.42;60.92;99894.91;31056693;28;20101;-77
2023/11/28 07:17:12;;;;;;;12.30;4.70;;;;;;;12.22;54.33;99909.72;31080508;28;20046;-76
2023/11/28 07:32:14;;;;;;;9.40;4.93;;;;;;;12.05;57.28;99911.00;31031659;28;20112;-78
2023/11/28 07:47:16;;;;;;;8.53;4.53;;;;;;;12.07;51.45;99914.03;31090592;28;20050;-77
2023/11/28 08:02:18;;;;;;;5.60;3.90;;;;;;;12.05;53.75;99921.88;31092819;28;20500;-77
2023/11/28 08:17:21;;;;;;;8.50;4.17;;;;;;;12.82;47.01;99918.00;31060545;28;20045;-77
2023/11/28 08:32:23;;;;;;;6.57;4.20;;;;;;;13.08;50.72;99924.19;31048002;28;20065;-79
2023/11/28 08:47:25;;;;;;;4.83;3.60;;;;;;;12.60;50.06;99912.47;31061311;28;20105;-78
2023/11/28 09:02:27;;;;;;;12.13;6.73;;;;;;;14.00;46.44;99899.16;31063419;28;20057;-76
2023/11/28 09:17:30;;;;;;;2.80;2.33;;;;;;;13.49;48.94;99898.66;31104448;28;20104;-83
2023/11/28 09:32:32;;;;;;;5.67;2.90;;;;;;;12.70;49.77;99905.16;31047368;28;20377;-81
2023/11/28 09:47:36;;;;;;;6.93;3.43;;;;;;;14.10;51.40;99897.25;31077503;28;20046;-78
2023/11/28 10:02:41;;;;;;;4.97;3.40;;;;;;;14.85;49.87;99867.84;31065572;28;20491;-82
2023/11/28 10:17:44;;;;;;;5.37;3.60;;;;;;;14.46;47.53;99872.88;31053244;28;20078;-77
2023/11/28 10:32:51;;;;;;;9.77;4.83;;;;;;;15.16;47.39;99848.56;31084539;28;20137;-78
2023/11/28 10:47:54;;;;;;;5.10;2.97;;;;;;;14.31;49.47;99860.97;31065738;28;20046;-78
2023/11/28 11:02:57;;;;;;;6.50;3.93;;;;;;;12.65;50.08;99852.00;31081266;28;20049;-81
2023/11/28 11:18:11;;;;;;;7.00;4.10;;;;;;;12.62;52.55;99842.75;31048992;28;20660;-77
2023/11/28 11:33:13;;;;;;;5.17;3.53;;;;;;;13.38;53.47;99838.31;31044158;28;20050;-74
2023/11/28 11:48:24;;;;;;;4.10;2.53;;;;;;;14.37;50.54;99842.78;31062982;28;20050;-76
2023/11/28 12:03:29;;;;;;;5.90;3.40;;;;;;;13.93;52.56;99845.63;31075077;28;20050;-76
2023/11/28 12:18:31;;;;;;;14.27;7.70;;;;;;;12.10;56.43;99859.53;31029476;28;20496;-77
2023/11/28 12:33:36;;;;;;;5.10;3.00;;;;;;;11.04;58.18;99857.78;31077583;28;20137;-76
2023/11/28 12:48:38;;;;;;;4.57;2.73;;;;;;;9.18;63.75;99854.81;31088365;28;20831;-77
2023/11/28 13:03:41;;;;;;;5.27;3.50;;;;;;;8.71;68.71;99853.28;31098631;28;20050;-80
2023/11/28 13:18:44;;;;;;;7.07;4.07;;;;;;;8.58;71.89;99827.97;31100893;28;20116;-80
2023/11/28 13:33:46;;;;;;;4.53;3.03;;;;;;;8.43;75.67;99828.19;31108928;28;20519;-78
2023/11/28 13:48:49;;;;;;;8.03;3.67;;;;;;;8.42;78.43;99815.84;31110395;28;20137;-79
2023/11/28 14:03:51;;;;;;;8.17;3.83;;;;;;;8.41;83.47;99811.63;31069660;28;20053;-80
2023/11/28 14:18:54;;;;;;;10.93;4.37;;;;;;;8.32;89.09;99799.75;31073794;28;20058;-79
2023/11/28 14:33:57;;;;;;;5.57;3.90;;;;;;;8.21;94.40;99783.69;31070770;28;20416;-80
2023/11/28 14:49:02;;;;;;;12.03;4.50;;;;;;;8.28;99.37;99759.22;31071992;28;20389;-78
2023/11/28 15:04:04;;;;;;;10.53;4.77;;;;;;;8.34;100.00;99768.44;31081143;28;20137;-77
2023/11/28 15:19:07;;;;;;;9.70;4.53;;;;;;;8.32;100.00;99741.03;31095849;28;20050;-78
2023/11/28 15:34:09;;;;;;;10.03;4.87;;;;;;;8.41;100.00;99733.16;31069382;28;20140;-76
2023/11/28 15:49:11;;;;;;;6.17;4.70;;;;;;;8.43;100.00;99698.38;31059746;28;20080;-82
2023/11/28 16:04:13;;;;;;;8.57;4.10;;;;;;;8.62;100.00;99696.09;31048393;28;20046;-80
2023/11/28 16:19:17;;;;;;;5.57;3.80;;;;;;;8.85;100.00;99679.81;31059371;28;20057;-81
2023/11/28 16:34:19;;;;;;;10.20;4.57;;;;;;;9.15;100.00;99659.88;31059139;28;20105;-85
2023/11/28 16:49:21;;;;;;;5.50;4.03;;;;;;;9.28;100.00;99670.81;31043414;28;20137;-83
2023/11/28 17:04:28;;;;;;;4.47;2.90;;;;;;;9.35;100.00;99657.13;31067264;28;20046;-81
2023/11/28 17:19:30;;;;;;;9.00;2.67;;;;;;;9.35;100.00;99662.56;31100212;28;20088;-76
2023/11/28 17:34:32;;;;;;;6.77;3.07;;;;;;;9.43;100.00;99626.00;31070971;28;20046;-76
2023/11/28 17:49:34;;;;;;;5.50;2.57;;;;;;;9.57;100.00;99621.00;31066413;28;20846;-77
2023/11/28 18:04:40;;;;;;;4.00;1.90;;;;;;;9.66;100.00;99628.56;31046137;28;20229;-76
2023/11/28 18:19:42;;;;;;;4.60;1.93;;;;;;;9.59;100.00;99623.28;31085148;28;20045;-75
2023/11/28 18:34:47;;;;;;;9.80;1.60;;;;;;;9.57;100.00;99615.59;31057574;28;20128;-76
2023/11/28 18:49:49;;;;;;;5.77;2.00;;;;;;;9.72;100.00;99607.88;31045327;28;20054;-75
2023/11/28 19:04:51;;;;;;;2.77;1.80;;;;;;;9.81;100.00;99591.78;31049058;28;20046;-74
2023/11/28 19:19:56;;;;;;;3.03;1.67;;;;;;;9.78;100.00;99581.03;31052652;28;20452;-77
2023/11/28 19:34:59;;;;;;;2.97;1.50;;;;;;;10.06;100.00;99557.84;31093717;28;20121;-76
2023/11/28 19:50:01;;;;;;;2.87;1.57;;;;;;;10.09;100.00;99521.75;31057575;28;20057;-77
2023/11/28 20:05:04;;;;;;;2.13;1.53;;;;;;;10.19;100.00;99521.47;31057032;28;20054;-79
2023/11/28 20:20:09;;;;;;;6.73;1.83;;;;;;;10.19;100.00;99501.72;31048283;28;20052;-81
2023/11/28 20:35:11;;;;;;;9.07;2.57;;;;;;;10.35;100.00;99487.34;31064482;28;20078;-82
2023/11/28 20:50:13;;;;;;;3.83;1.97;;;;;;;10.27;100.00;99454.22;31061721;28;20061;-77
2023/11/28 21:05:15;;;;;;;6.87;2.47;;;;;;;10.55;100.00;99442.56;31086741;28;20483;-77
2023/11/28 21:20:18;;;;;;;4.73;2.47;;;;;;;10.63;100.00;99431.50;31077630;28;20055;-80
2023/11/28 21:35:20;;;;;;;8.90;2.43;;;;;;;10.75;100.00;99406.28;31079224;28;20082;-78
2023/11/28 21:50:22;;;;;;;7.53;2.87;;;;;;;10.81;100.00;99393.69;31054494;28;20573;-78
2023/11/28 22:05:24;;;;;;;6.90;4.40;;;;;;;10.86;100.00;99363.28;31063204;28;20476;-78
2023/11/28 22:20:27;;;;;;;9.57;2.80;;;;;;;10.86;100.00;99347.75;31090923;28;20062;-78
2023/11/28 22:35:29;;;;;;;9.93;2.90;;;;;;;11.19;100.00;99304.72;31088800;28;20112;-78
2023/11/28 22:50:32;;;;;;;3.30;1.83;;;;;;;11.25;100.00;99264.91;31045176;28;20041;-78
2023/11/28 23:05:33;;;;;;;7.50;2.80;;;;;;;11.37;100.00;99210.94;31065699;28;20142;-78
2023/11/28 23:20:36;;;;;;;7.10;2.73;;;;;;;11.45;100.00;99202.06;31055287;28;20077;-77
2023/11/28 23:35:38;;;;;;;7.70;2.77;;;;;;;11.58;100.00;99123.91;31132036;28;20420;-77
2023/11/28 23:50:40;;;;;;;10.53;2.80;;;;;;;11.73;100.00;99107.03;31069766;28;20086;-78
